createdAt,value
2017-04-15T00:00:16.417Z,60.97
2017-04-15T00:00:56.985Z,60.97
2017-04-15T00:01:37.602Z,60.78
2017-04-15T00:02:18.185Z,61.25
2017-04-15T00:02:58.770Z,61.45
2017-04-15T00:03:39.371Z,60.78
2017-04-15T00:04:19.947Z,60.97
2017-04-15T00:05:00.528Z,61.07
2017-04-15T00:05:41.097Z,60.88
2017-04-15T00:06:21.679Z,60.97
2017-04-15T00:07:02.284Z,60.88
2017-04-15T00:07:42.876Z,60.59
2017-04-15T00:08:23.470Z,60.78
2017-04-15T00:09:04.057Z,61.07
2017-04-15T00:09:44.657Z,60.88
2017-04-15T00:10:25.231Z,61.25
2017-04-15T00:11:05.808Z,61.45
2017-04-15T00:11:46.392Z,61.64
2017-04-15T00:12:27.001Z,61.35
2017-04-15T00:13:07.576Z,61.35
2017-04-15T00:13:48.164Z,61.45
2017-04-15T00:14:28.737Z,61.64
2017-04-15T00:15:09.305Z,61.83
2017-04-15T00:15:49.875Z,61.54
2017-04-15T00:16:30.456Z,61.25
2017-04-15T00:17:11.023Z,61.54
2017-04-15T00:17:51.592Z,60.97
2017-04-15T00:18:32.206Z,61.16
2017-04-15T00:19:12.773Z,61.07
2017-04-15T00:19:53.358Z,61.16
2017-04-15T00:20:33.946Z,61.07
2017-04-15T00:21:14.548Z,61.54
2017-04-15T00:21:55.162Z,61.54
2017-04-15T00:22:35.754Z,61.25
2017-04-15T00:23:16.343Z,61.35
2017-04-15T00:23:56.959Z,61.25
2017-04-15T00:24:37.609Z,61.35
2017-04-15T00:25:18.180Z,61.54
2017-04-15T00:25:58.774Z,61.45
2017-04-15T00:26:39.378Z,61.35
2017-04-15T00:27:19.931Z,61.16
2017-04-15T00:28:00.516Z,61.54
2017-04-15T00:28:41.095Z,61.83
2017-04-15T00:29:21.679Z,61.83
2017-04-15T00:30:02.266Z,62.02
2017-04-15T00:30:42.868Z,62.02
2017-04-15T00:31:23.423Z,62.21
2017-04-15T00:32:04.033Z,62.21
2017-04-15T00:32:44.610Z,62.02
2017-04-15T00:33:25.200Z,62.21
2017-04-15T00:34:05.776Z,62.3
2017-04-15T00:34:46.333Z,62.12
2017-04-15T00:35:27.136Z,62.12
2017-04-15T00:36:07.736Z,62.21
2017-04-15T00:36:48.346Z,62.21
2017-04-15T00:37:28.913Z,62.21
2017-04-15T00:38:09.541Z,62.4
2017-04-15T00:38:50.133Z,62.02
2017-04-15T00:39:30.701Z,62.3
2017-04-15T00:40:11.294Z,62.12
2017-04-15T00:40:51.867Z,62.4
2017-04-15T00:41:32.463Z,62.4
2017-04-15T00:42:13.036Z,62.21
2017-04-15T00:42:53.622Z,62.21
2017-04-15T00:43:34.189Z,62.21
2017-04-15T00:44:14.757Z,62.4
2017-04-15T00:44:55.331Z,62.68
2017-04-15T00:45:35.901Z,62.78
2017-04-15T00:46:16.488Z,62.12
2017-04-15T00:46:57.059Z,62.12
2017-04-15T00:47:37.663Z,62.78
2017-04-15T00:48:18.255Z,62.59
2017-04-15T00:48:58.857Z,62.4
2017-04-15T00:49:39.457Z,62.68
2017-04-15T00:50:20.057Z,63.17
2017-04-15T00:51:00.630Z,63.07
2017-04-15T00:51:41.219Z,62.88
2017-04-15T00:52:21.817Z,62.97
2017-04-15T00:53:02.386Z,62.68
2017-04-15T00:53:42.964Z,63.17
2017-04-15T00:54:23.568Z,63.17
2017-04-15T00:55:04.160Z,62.68
2017-04-15T00:55:44.738Z,62.97
2017-04-15T00:56:25.314Z,62.97
2017-04-15T00:57:05.891Z,63.07
2017-04-15T00:57:46.450Z,63.07
2017-04-15T00:58:27.039Z,63.45
2017-04-15T00:59:07.620Z,63.17
2017-04-15T00:59:48.206Z,63.07
2017-04-15T01:00:28.773Z,63.07
2017-04-15T01:01:09.337Z,62.88
2017-04-15T01:01:49.897Z,62.4
2017-04-15T01:02:30.528Z,62.97
2017-04-15T01:03:11.110Z,62.78
2017-04-15T01:03:51.684Z,62.88
2017-04-15T01:04:32.258Z,63.17
2017-04-15T01:05:12.830Z,63.17
2017-04-15T01:05:53.390Z,63.35
2017-04-15T01:06:33.960Z,62.88
2017-04-15T01:07:14.535Z,63.45
2017-04-15T01:07:55.116Z,63.64
2017-04-15T01:08:35.685Z,63.45
2017-04-15T01:09:16.248Z,63.73
2017-04-15T01:09:56.837Z,63.35
2017-04-15T01:10:37.393Z,63.45
2017-04-15T01:11:17.973Z,63.54
2017-04-15T01:11:58.540Z,63.89
2017-04-15T01:12:39.135Z,64.02
2017-04-15T01:13:19.713Z,63.8
2017-04-15T01:14:00.352Z,64.28
2017-04-15T01:14:40.925Z,63.89
2017-04-15T01:15:21.547Z,64.08
2017-04-15T01:16:02.126Z,64.08
2017-04-15T01:16:42.746Z,64.18
2017-04-15T01:17:23.339Z,63.99
2017-04-15T01:18:03.914Z,63.8
2017-04-15T01:18:44.498Z,64.08
2017-04-15T01:19:25.079Z,64.08
2017-04-15T01:20:05.659Z,64.28
2017-04-15T01:20:46.227Z,64.08
2017-04-15T01:21:26.792Z,64.28
2017-04-15T01:22:07.365Z,64.56
2017-04-15T01:22:47.981Z,64.56
2017-04-15T01:23:28.552Z,64.47
2017-04-15T01:24:09.144Z,64.37
2017-04-15T01:24:49.747Z,64.37
2017-04-15T01:25:30.339Z,64.75
2017-04-15T01:26:10.970Z,64.65
2017-04-15T01:26:51.574Z,64.75
2017-04-15T01:27:32.214Z,65.13
2017-04-15T01:28:12.787Z,65.13
2017-04-15T01:28:53.377Z,64.75
2017-04-15T01:29:33.999Z,64.75
2017-04-15T01:30:14.587Z,64.94
2017-04-15T01:30:55.197Z,65.42
2017-04-15T01:31:35.756Z,65.13
2017-04-15T01:32:16.399Z,65.32
2017-04-15T01:32:57.014Z,65.23
2017-04-15T01:33:37.646Z,65.51
2017-04-15T01:34:18.192Z,65.51
2017-04-15T01:34:58.806Z,65.61
2017-04-15T01:35:39.382Z,65.42
2017-04-15T01:36:19.960Z,65.61
2017-04-15T01:37:00.558Z,65.61
2017-04-15T01:37:41.144Z,65.61
2017-04-15T01:38:21.724Z,65.32
2017-04-15T01:39:02.317Z,65.89
2017-04-15T01:39:42.918Z,66.18
2017-04-15T01:40:23.494Z,66.18
2017-04-15T01:41:04.087Z,65.7
2017-04-15T01:41:44.678Z,65.51
2017-04-15T01:42:25.262Z,65.8
2017-04-15T01:43:05.816Z,66.08
2017-04-15T01:43:46.432Z,65.8
2017-04-15T01:44:27.063Z,65.8
2017-04-15T01:45:07.631Z,65.61
2017-04-15T01:45:48.271Z,65.61
2017-04-15T01:46:28.838Z,65.8
2017-04-15T01:47:09.405Z,65.61
2017-04-15T01:47:50.000Z,65.7
2017-04-15T01:48:30.627Z,65.7
2017-04-15T01:49:11.184Z,65.42
2017-04-15T01:49:51.795Z,65.51
2017-04-15T01:50:32.388Z,65.61
2017-04-15T01:51:12.965Z,65.51
2017-04-15T01:51:53.548Z,65.51
2017-04-15T01:52:34.139Z,65.61
2017-04-15T01:53:14.736Z,65.7
2017-04-15T01:53:55.292Z,65.7
2017-04-15T01:54:35.865Z,65.51
2017-04-15T01:55:16.475Z,65.03
2017-04-15T01:55:57.034Z,65.32
2017-04-15T01:56:37.626Z,65.23
2017-04-15T01:57:18.244Z,65.51
2017-04-15T01:57:58.806Z,65.8
2017-04-15T01:58:39.370Z,65.61
2017-04-15T01:59:19.939Z,65.61
2017-04-15T02:00:00.505Z,65.7
2017-04-15T02:00:41.083Z,65.89
2017-04-15T02:01:21.658Z,66.08
2017-04-15T02:02:02.262Z,66.08
2017-04-15T02:02:42.835Z,66.08
2017-04-15T02:03:23.445Z,65.7
2017-04-15T02:04:04.026Z,65.8
2017-04-15T02:04:44.640Z,65.89
2017-04-15T02:05:25.253Z,65.51
2017-04-15T02:06:05.836Z,65.8
2017-04-15T02:06:46.407Z,65.61
2017-04-15T02:07:26.970Z,65.8
2017-04-15T02:08:07.551Z,65.51
2017-04-15T02:08:48.107Z,65.7
2017-04-15T02:09:28.677Z,65.61
2017-04-15T02:10:09.296Z,65.99
2017-04-15T02:10:49.873Z,65.61
2017-04-15T02:11:30.462Z,65.61
2017-04-15T02:12:11.021Z,65.61
2017-04-15T02:12:51.659Z,66.08
2017-04-15T02:13:32.222Z,65.99
2017-04-15T02:14:12.808Z,65.89
2017-04-15T02:14:53.374Z,65.89
2017-04-15T02:15:33.967Z,65.99
2017-04-15T02:16:14.547Z,65.61
2017-04-15T02:16:55.124Z,66.08
2017-04-15T02:17:35.727Z,65.99
2017-04-15T02:18:16.315Z,65.99
2017-04-15T02:18:56.888Z,66.18
2017-04-15T02:19:37.453Z,65.99
2017-04-15T02:20:18.095Z,65.99
2017-04-15T02:20:58.668Z,65.8
2017-04-15T02:21:39.343Z,66.18
2017-04-15T02:22:19.916Z,65.99
2017-04-15T02:23:00.502Z,65.8
2017-04-15T02:23:41.086Z,65.89
2017-04-15T02:24:21.691Z,65.89
2017-04-15T02:25:02.281Z,65.89
2017-04-15T02:25:42.867Z,65.7
2017-04-15T02:26:23.463Z,65.89
2017-04-15T02:27:04.026Z,65.8
2017-04-15T02:27:44.597Z,65.89
2017-04-15T02:28:25.184Z,65.7
2017-04-15T02:29:05.755Z,66.18
2017-04-15T02:29:46.330Z,66.18
2017-04-15T02:30:26.906Z,66.27
2017-04-15T02:31:07.504Z,66.37
2017-04-15T02:31:48.105Z,66.27
2017-04-15T02:32:28.679Z,66.37
2017-04-15T02:33:09.269Z,66.94
2017-04-15T02:33:49.847Z,67.03
2017-04-15T02:34:30.411Z,66.94
2017-04-15T02:35:10.975Z,66.46
2017-04-15T02:35:51.569Z,66.75
2017-04-15T02:36:32.157Z,66.94
2017-04-15T02:37:12.740Z,66.66
2017-04-15T02:37:53.317Z,66.66
2017-04-15T02:38:33.926Z,66.62
2017-04-15T02:39:14.570Z,66.85
2017-04-15T02:39:55.138Z,67
2017-04-15T02:40:35.774Z,66.91
2017-04-15T02:41:16.338Z,67.13
2017-04-15T02:41:56.931Z,66.94
2017-04-15T02:42:37.512Z,67.13
2017-04-15T02:43:18.091Z,67.19
2017-04-15T02:43:58.675Z,66.94
2017-04-15T02:44:39.296Z,67.1
2017-04-15T02:45:19.868Z,66.91
2017-04-15T02:46:00.452Z,67.19
2017-04-15T02:46:41.027Z,67.41
2017-04-15T02:47:21.599Z,67.13
2017-04-15T02:48:02.161Z,67.22
2017-04-15T02:48:42.802Z,67.22
2017-04-15T02:49:23.372Z,67
2017-04-15T02:50:03.950Z,66.62
2017-04-15T02:50:44.526Z,66.91
2017-04-15T02:51:25.115Z,67
2017-04-15T02:52:05.691Z,67.19
2017-04-15T02:52:46.286Z,67.38
2017-04-15T02:53:26.864Z,67.19
2017-04-15T02:54:07.454Z,67.19
2017-04-15T02:54:48.052Z,67.19
2017-04-15T02:55:28.650Z,67.19
2017-04-15T02:56:09.227Z,67.38
2017-04-15T02:56:49.817Z,67.1
2017-04-15T02:57:30.405Z,67.67
2017-04-15T02:58:10.964Z,67.57
2017-04-15T02:58:51.546Z,67.57
2017-04-15T02:59:32.116Z,67.57
2017-04-15T03:00:12.687Z,67.67
2017-04-15T03:00:53.367Z,67.67
2017-04-15T03:01:33.984Z,67.86
2017-04-15T03:02:14.578Z,67.76
2017-04-15T03:02:55.239Z,67.95
2017-04-15T03:03:35.812Z,67.76
2017-04-15T03:04:16.439Z,67.67
2017-04-15T03:04:57.048Z,67.47
2017-04-15T03:05:37.628Z,67.57
2017-04-15T03:06:18.245Z,67.86
2017-04-15T03:06:58.812Z,68.33
2017-04-15T03:07:39.393Z,68.33
2017-04-15T03:08:19.962Z,67.76
2017-04-15T03:09:00.543Z,67.95
2017-04-15T03:09:41.148Z,68.15
2017-04-15T03:10:21.724Z,68.05
2017-04-15T03:11:02.294Z,68.15
2017-04-15T03:11:42.859Z,68.33
2017-04-15T03:12:23.433Z,68.33
2017-04-15T03:13:04.000Z,68.52
2017-04-15T03:13:44.604Z,68.33
2017-04-15T03:14:25.246Z,68.33
2017-04-15T03:15:05.860Z,68.71
2017-04-15T03:15:46.435Z,68.43
2017-04-15T03:16:27.033Z,68.52
2017-04-15T03:17:07.628Z,68.15
2017-04-15T03:17:48.233Z,68.33
2017-04-15T03:18:28.841Z,67.76
2017-04-15T03:19:09.393Z,67.57
2017-04-15T03:19:49.977Z,67.47
2017-04-15T03:20:30.566Z,67.47
2017-04-15T03:21:11.125Z,67.47
2017-04-15T03:21:51.760Z,67.95
2017-04-15T03:22:32.329Z,67.76
2017-04-15T03:23:12.928Z,67.57
2017-04-15T03:23:53.518Z,67.95
2017-04-15T03:24:34.089Z,67.76
2017-04-15T03:25:14.683Z,67.57
2017-04-15T03:25:55.268Z,67.76
2017-04-15T03:26:35.881Z,68.05
2017-04-15T03:27:16.531Z,67.95
2017-04-15T03:27:57.137Z,67.76
2017-04-15T03:28:37.716Z,67.67
2017-04-15T03:29:18.308Z,67.76
2017-04-15T03:29:58.931Z,67.76
2017-04-15T03:30:39.539Z,67.86
2017-04-15T03:31:20.123Z,67.76
2017-04-15T03:32:00.684Z,67.86
2017-04-15T03:32:41.272Z,67.76
2017-04-15T03:33:21.849Z,67.76
2017-04-15T03:34:02.446Z,68.05
2017-04-15T03:34:43.018Z,67.86
2017-04-15T03:35:23.601Z,67.67
2017-04-15T03:36:04.185Z,68.05
2017-04-15T03:36:44.798Z,67.67
2017-04-15T03:37:25.356Z,67.67
2017-04-15T03:38:05.924Z,67.86
2017-04-15T03:38:46.526Z,67.86
2017-04-15T03:39:27.145Z,68.33
2017-04-15T03:40:07.704Z,67.95
2017-04-15T03:40:48.270Z,68.15
2017-04-15T03:41:28.853Z,68.43
2017-04-15T03:42:09.427Z,68.43
2017-04-15T03:42:50.031Z,68.43
2017-04-15T03:43:30.651Z,68.71
2017-04-15T03:44:11.252Z,68.71
2017-04-15T03:44:51.797Z,68.81
2017-04-15T03:45:32.401Z,68.9
2017-04-15T03:46:12.975Z,68.71
2017-04-15T03:46:53.581Z,68.71
2017-04-15T03:47:34.164Z,68.62
2017-04-15T03:48:14.778Z,68.71
2017-04-15T03:48:55.361Z,68.71
2017-04-15T03:49:35.945Z,68.81
2017-04-15T03:50:16.506Z,68.71
2017-04-15T03:50:57.114Z,68.71
2017-04-15T03:51:37.725Z,68.62
2017-04-15T03:52:18.311Z,68.62
2017-04-15T03:52:58.903Z,68.62
2017-04-15T03:53:39.501Z,68.52
2017-04-15T03:54:20.109Z,68.71
2017-04-15T03:55:00.691Z,68.81
2017-04-15T03:55:41.268Z,68.62
2017-04-15T03:56:21.830Z,68.62
2017-04-15T03:57:02.414Z,68.71
2017-04-15T03:57:42.978Z,68.81
2017-04-15T03:58:23.555Z,68.62
2017-04-15T03:59:04.170Z,68.52
2017-04-15T03:59:44.873Z,68.9
2017-04-15T04:00:25.499Z,68.81
2017-04-15T04:01:06.063Z,68.71
2017-04-15T04:01:46.665Z,69.29
2017-04-15T04:02:27.229Z,69.38
2017-04-15T04:03:07.826Z,69.48
2017-04-15T04:03:48.417Z,69.29
2017-04-15T04:04:29.024Z,69.48
2017-04-15T04:05:09.619Z,69.29
2017-04-15T04:05:50.221Z,69.38
2017-04-15T04:06:30.796Z,69.29
2017-04-15T04:07:11.472Z,69.29
2017-04-15T04:07:52.064Z,69.1
2017-04-15T04:08:32.645Z,69
2017-04-15T04:09:13.210Z,68.81
2017-04-15T04:09:53.793Z,69.29
2017-04-15T04:10:34.384Z,69.38
2017-04-15T04:11:14.957Z,69.38
2017-04-15T04:11:55.527Z,69.38
2017-04-15T04:12:36.110Z,69.38
2017-04-15T04:13:16.706Z,69.57
2017-04-15T04:13:57.289Z,69.29
2017-04-15T04:14:37.840Z,69.35
2017-04-15T04:15:18.475Z,69.38
2017-04-15T04:15:59.053Z,69.38
2017-04-15T04:16:39.635Z,69.48
2017-04-15T04:17:20.220Z,69.15
2017-04-15T04:18:00.804Z,69.1
2017-04-15T04:18:41.371Z,69.35
2017-04-15T04:19:21.980Z,69.38
2017-04-15T04:20:02.565Z,69.25
2017-04-15T04:20:43.142Z,69.44
2017-04-15T04:21:23.750Z,69.1
2017-04-15T04:22:04.375Z,69.73
2017-04-15T04:22:44.979Z,69.15
2017-04-15T04:23:25.564Z,69.19
2017-04-15T04:24:06.131Z,69.48
2017-04-15T04:24:46.744Z,69.06
2017-04-15T04:25:27.347Z,69.38
2017-04-15T04:26:08.005Z,69.25
2017-04-15T04:26:48.565Z,69.85
2017-04-15T04:27:29.130Z,69.63
2017-04-15T04:28:09.744Z,69.67
2017-04-15T04:28:50.316Z,69.19
2017-04-15T04:29:30.888Z,69.15
2017-04-15T04:30:11.480Z,69.48
2017-04-15T04:30:52.063Z,69.48
2017-04-15T04:31:32.620Z,69.48
2017-04-15T04:32:13.254Z,69.25
2017-04-15T04:32:53.826Z,69.48
2017-04-15T04:33:34.439Z,69.38
2017-04-15T04:34:15.030Z,69.35
2017-04-15T04:34:55.593Z,69.1
2017-04-15T04:35:36.186Z,69.35
2017-04-15T04:36:16.744Z,69.29
2017-04-15T04:36:57.370Z,69.38
2017-04-15T04:37:37.941Z,69.19
2017-04-15T04:38:18.515Z,69.85
2017-04-15T04:38:59.086Z,69.67
2017-04-15T04:39:39.689Z,69.67
2017-04-15T04:40:20.302Z,69.67
2017-04-15T04:41:00.873Z,69.76
2017-04-15T04:41:41.539Z,69.29
2017-04-15T04:42:22.109Z,69.19
2017-04-15T04:43:02.667Z,69.29
2017-04-15T04:43:43.267Z,69.29
2017-04-15T04:44:23.852Z,69.29
2017-04-15T04:45:04.407Z,69.19
2017-04-15T04:45:45.000Z,69.19
2017-04-15T04:46:25.586Z,69.76
2017-04-15T04:47:06.202Z,69.1
2017-04-15T04:47:46.795Z,69.29
2017-04-15T04:48:27.365Z,69.1
2017-04-15T04:49:08.111Z,69.19
2017-04-15T04:49:48.667Z,69.38
2017-04-15T04:50:29.259Z,69.19
2017-04-15T04:51:09.851Z,69.19
2017-04-15T04:51:50.453Z,69.48
2017-04-15T04:52:31.061Z,69.48
2017-04-15T04:53:11.634Z,69.19
2017-04-15T04:53:52.206Z,69.57
2017-04-15T04:54:32.784Z,69.76
2017-04-15T04:55:13.373Z,69.29
2017-04-15T04:55:53.990Z,69.29
2017-04-15T04:56:34.545Z,69.67
2017-04-15T04:57:15.132Z,69.57
2017-04-15T04:57:55.720Z,69.67
2017-04-15T04:58:36.289Z,69.48
2017-04-15T04:59:16.874Z,69.57
2017-04-15T04:59:57.474Z,69.57
2017-04-15T05:00:38.034Z,69.38
2017-04-15T05:01:18.630Z,69.57
2017-04-15T05:01:59.169Z,69.57
2017-04-15T05:02:39.757Z,69.29
2017-04-15T05:03:20.338Z,69.29
2017-04-15T05:04:00.938Z,69.67
2017-04-15T05:04:41.496Z,69.67
2017-04-15T05:05:22.127Z,69.29
2017-04-15T05:06:02.663Z,69.95
2017-04-15T05:06:43.234Z,69.76
2017-04-15T05:07:23.797Z,69.15
2017-04-15T05:08:04.413Z,69.25
2017-04-15T05:08:44.994Z,69.76
2017-04-15T05:09:25.575Z,69.82
2017-04-15T05:10:06.147Z,69.54
2017-04-15T05:10:46.720Z,70.24
2017-04-15T05:11:27.322Z,70.14
2017-04-15T05:12:07.880Z,70.14
2017-04-15T05:12:48.495Z,69.57
2017-04-15T05:13:29.078Z,69.57
2017-04-15T05:14:09.643Z,69.38
2017-04-15T05:14:50.224Z,69.54
2017-04-15T05:15:30.802Z,69.44
2017-04-15T05:16:11.350Z,70.24
2017-04-15T05:16:51.950Z,70.01
2017-04-15T05:17:32.553Z,70.01
2017-04-15T05:18:13.149Z,69.95
2017-04-15T05:18:53.714Z,70.05
2017-04-15T05:19:34.304Z,69.92
2017-04-15T05:20:14.855Z,69.85
2017-04-15T05:20:55.454Z,69.76
2017-04-15T05:21:36.060Z,69.82
2017-04-15T05:22:16.649Z,70.01
2017-04-15T05:22:57.214Z,69.92
2017-04-15T05:23:37.780Z,70.2
2017-04-15T05:24:18.358Z,69.82
2017-04-15T05:24:58.938Z,70.3
2017-04-15T05:25:39.571Z,69.73
2017-04-15T05:26:20.171Z,70.3
2017-04-15T05:29:42.036Z,69.82
2017-04-15T05:30:22.626Z,69.92
2017-04-15T05:31:03.197Z,70.01
2017-04-15T05:31:44.177Z,70.01
2017-04-15T05:32:24.746Z,70.01
2017-04-15T05:33:05.343Z,69.92
2017-04-15T05:33:45.942Z,70.1
2017-04-15T05:34:26.511Z,70.87
2017-04-15T05:35:07.089Z,70.9
2017-04-15T05:35:47.696Z,70.68
2017-04-15T05:36:28.298Z,70.2
2017-04-15T05:37:09.152Z,70.39
2017-04-15T05:37:49.733Z,70.1
2017-04-15T05:38:30.318Z,70.1
2017-04-15T05:39:10.912Z,71.06
2017-04-15T05:39:51.514Z,73.57
2017-04-15T05:40:32.137Z,73.85
2017-04-15T05:41:13.325Z,73.76
2017-04-15T05:41:54.014Z,74.33
2017-04-15T05:42:34.607Z,74.56
2017-04-15T05:43:15.191Z,73.89
2017-04-15T05:43:55.797Z,72.75
2017-04-15T05:44:37.067Z,72.94
2017-04-15T05:45:17.812Z,72.31
2017-04-15T05:45:58.410Z,70.5
2017-04-15T05:46:38.994Z,71.07
2017-04-15T05:47:19.589Z,71.26
2017-04-15T05:48:00.156Z,70.21
2017-04-15T05:48:42.875Z,68.69
2017-04-15T05:49:23.437Z,67.86
2017-04-15T05:50:04.053Z,67.29
2017-04-15T05:50:44.640Z,66.34
2017-04-15T05:51:25.266Z,66.34
2017-04-15T05:52:05.863Z,67.29
2017-04-15T05:52:46.441Z,66.05
2017-04-15T05:53:26.999Z,64.62
2017-04-15T05:54:07.599Z,63.39
2017-04-15T05:54:48.831Z,62.72
2017-04-15T05:55:29.419Z,62.91
2017-04-15T05:56:10.040Z,63.35
2017-04-15T05:56:50.602Z,63.73
2017-04-15T05:57:31.165Z,63.73
2017-04-15T05:58:11.748Z,63.92
2017-04-15T05:58:52.333Z,64.12
2017-04-15T05:59:32.913Z,64.59
2017-04-15T06:00:13.547Z,64.31
2017-04-15T06:00:55.194Z,64.5
2017-04-15T06:01:35.814Z,64.69
2017-04-15T06:02:16.410Z,65.03
2017-04-15T06:02:57.004Z,64.84
2017-04-15T06:03:37.567Z,65.42
2017-04-15T06:04:18.177Z,65.51
2017-04-15T06:04:58.764Z,65.7
2017-04-15T06:05:39.369Z,66.08
2017-04-15T06:06:20.062Z,66.08
2017-04-15T06:07:00.657Z,65.89
2017-04-15T06:07:41.257Z,65.89
2017-04-15T06:08:21.849Z,65.99
2017-04-15T06:09:02.455Z,65.8
2017-04-15T06:09:43.023Z,65.89
2017-04-15T06:10:23.615Z,65.7
2017-04-15T06:11:05.301Z,65.61
2017-04-15T06:11:45.882Z,66.27
2017-04-15T06:12:26.458Z,65.89
2017-04-15T06:13:07.064Z,66.37
2017-04-15T06:13:47.670Z,66.37
2017-04-15T06:14:28.280Z,66.27
2017-04-15T06:15:08.882Z,66.56
2017-04-15T06:15:50.330Z,66.53
2017-04-15T06:16:30.988Z,66.33
2017-04-15T06:17:11.552Z,66.18
2017-04-15T06:17:52.172Z,66.27
2017-04-15T06:18:32.763Z,66.72
2017-04-15T06:19:13.380Z,66.24
2017-04-15T06:19:53.960Z,66.33
2017-04-15T06:20:34.572Z,66.08
2017-04-15T06:21:15.231Z,66.33
2017-04-15T06:21:55.880Z,66.27
2017-04-15T06:22:36.476Z,66.43
2017-04-15T06:23:17.084Z,66.33
2017-04-15T06:23:57.659Z,66.08
2017-04-15T06:24:38.232Z,66.46
2017-04-15T06:25:19.227Z,66.33
2017-04-15T06:25:59.795Z,66.18
2017-04-15T06:26:40.389Z,66.33
2017-04-15T06:27:21.068Z,66.18
2017-04-15T06:28:01.657Z,66.27
2017-04-15T06:28:42.251Z,66.27
2017-04-15T06:29:22.894Z,66.33
2017-04-15T06:30:03.480Z,66.27
2017-04-15T06:30:44.065Z,66.33
2017-04-15T06:31:24.661Z,66.05
2017-04-15T06:32:05.273Z,66.27
2017-04-15T06:32:47.766Z,66.08
2017-04-15T06:33:29.702Z,66.18
2017-04-15T06:34:10.271Z,66.33
2017-04-15T06:34:50.863Z,66.37
2017-04-15T06:35:33.246Z,66.14
2017-04-15T06:36:13.819Z,66.08
2017-04-15T06:36:54.484Z,66.27
2017-04-15T06:37:35.068Z,66.33
2017-04-15T06:38:15.776Z,66.05
2017-04-15T06:38:56.372Z,66.24
2017-04-15T06:39:37.105Z,66.05
2017-04-15T06:40:17.687Z,66.05
2017-04-15T06:40:58.405Z,65.95
2017-04-15T06:41:38.968Z,65.86
2017-04-15T06:42:19.631Z,66.05
2017-04-15T06:43:00.229Z,66.14
2017-04-15T06:43:40.810Z,66.05
2017-04-15T06:44:21.519Z,66.33
2017-04-15T06:45:02.138Z,66.66
2017-04-15T06:45:42.740Z,66.53
2017-04-15T06:46:23.335Z,66.14
2017-04-15T06:47:03.953Z,66.14
2017-04-15T06:47:44.652Z,66.14
2017-04-15T06:48:25.373Z,66.33
2017-04-15T06:49:05.959Z,66.33
2017-04-15T06:49:46.538Z,66.14
2017-04-15T06:50:27.149Z,66.62
2017-04-15T06:51:07.737Z,66.81
2017-04-15T06:51:48.344Z,66.62
2017-04-15T06:52:28.919Z,66.81
2017-04-15T06:53:09.515Z,67.19
2017-04-15T06:53:50.121Z,66.91
2017-04-15T06:54:30.733Z,67.29
2017-04-15T06:55:11.370Z,67
2017-04-15T06:55:51.978Z,67
2017-04-15T06:56:32.580Z,67.1
2017-04-15T06:57:13.201Z,67
2017-04-15T06:57:53.805Z,66.62
2017-04-15T06:58:34.404Z,66.62
2017-04-15T06:59:14.984Z,66.43
2017-04-15T06:59:55.881Z,67.1
2017-04-15T07:00:36.901Z,66.91
2017-04-15T07:01:17.694Z,67.29
2017-04-15T07:01:58.310Z,67.19
2017-04-15T07:02:38.879Z,67.19
2017-04-15T07:03:19.588Z,66.81
2017-04-15T07:04:00.473Z,67.47
2017-04-15T07:04:41.448Z,67.47
2017-04-15T07:05:22.431Z,67.1
2017-04-15T07:06:03.014Z,67.1
2017-04-15T07:06:43.938Z,67.38
2017-04-15T07:07:24.524Z,67.19
2017-04-15T07:08:05.109Z,67.1
2017-04-15T07:08:45.674Z,67.29
2017-04-15T07:09:26.250Z,67.47
2017-04-15T07:10:06.830Z,67.67
2017-04-15T07:10:47.416Z,67.86
2017-04-15T07:11:28.003Z,67.76
2017-04-15T07:12:08.554Z,67.86
2017-04-15T07:12:49.152Z,67.86
2017-04-15T07:13:29.731Z,67.86
2017-04-15T07:14:10.330Z,67.76
2017-04-15T07:14:50.917Z,67.57
2017-04-15T07:15:31.531Z,67.86
2017-04-15T07:16:12.108Z,67.67
2017-04-15T07:16:52.679Z,67.95
2017-04-15T07:17:34.683Z,67.76
2017-04-15T07:18:15.264Z,68.24
2017-04-15T07:18:55.845Z,68.24
2017-04-15T07:19:36.465Z,67.57
2017-04-15T07:20:17.034Z,67.86
2017-04-15T07:20:57.915Z,67.51
2017-04-15T07:21:38.840Z,67.89
2017-04-15T07:22:19.631Z,67.47
2017-04-15T07:23:00.335Z,67.1
2017-04-15T07:23:40.973Z,67.38
2017-04-15T07:24:21.892Z,67.38
2017-04-15T07:25:02.879Z,67.41
2017-04-15T07:25:43.667Z,67.22
2017-04-15T07:26:24.577Z,67.41
2017-04-15T07:27:05.594Z,67.19
2017-04-15T07:27:46.503Z,67.29
2017-04-15T07:28:27.150Z,67.41
2017-04-15T07:29:07.734Z,67.29
2017-04-15T07:29:48.964Z,67.32
2017-04-15T07:30:31.938Z,67.41
2017-04-15T07:31:14.067Z,67.22
2017-04-15T07:31:55.057Z,66.94
2017-04-15T07:32:36.442Z,67.03
2017-04-15T07:33:18.420Z,66.85
2017-04-15T07:33:59.035Z,66.85
2017-04-15T07:34:39.550Z,66.18
2017-04-15T07:35:21.065Z,66.37
2017-04-15T07:36:01.903Z,66.27
2017-04-15T07:36:43.168Z,66.37
2017-04-15T07:37:24.210Z,66.08
2017-04-15T07:38:04.840Z,66.56
2017-04-15T07:38:45.501Z,66.18
2017-04-15T07:39:26.855Z,66.08
2017-04-15T07:40:07.580Z,65.42
2017-04-15T07:40:48.426Z,65.99
2017-04-15T07:41:29.022Z,65.99
2017-04-15T07:42:09.613Z,66.08
2017-04-15T07:42:50.261Z,66.18
2017-04-15T07:43:31.170Z,66.18
2017-04-15T07:44:12.156Z,66.27
2017-04-15T07:44:52.915Z,66.18
2017-04-15T07:45:33.759Z,66.94
2017-04-15T07:46:14.493Z,66.94
2017-04-15T07:46:55.377Z,67.32
2017-04-15T07:47:38.038Z,67.89
2017-04-15T07:48:19.179Z,67.89
2017-04-15T07:49:00.151Z,68.18
2017-04-15T07:49:41.314Z,68.18
2017-04-15T07:50:22.015Z,68.27
2017-04-15T07:51:02.683Z,68.84
2017-04-15T07:51:43.366Z,69.89
2017-04-15T07:52:24.077Z,70.18
2017-04-15T07:53:04.769Z,70.47
2017-04-15T07:53:45.601Z,71.42
2017-04-15T07:54:26.196Z,70.84
2017-04-15T07:55:06.842Z,69.99
2017-04-15T07:55:47.497Z,70.18
2017-04-15T07:56:28.105Z,70.56
2017-04-15T07:57:09.022Z,70.27
2017-04-15T07:57:49.654Z,70.18
2017-04-15T07:58:30.327Z,70.56
2017-04-15T07:59:10.947Z,70.65
2017-04-15T07:59:51.552Z,71.13
2017-04-15T08:00:32.139Z,71.51
2017-04-15T08:01:12.720Z,71.8
2017-04-15T08:01:53.661Z,71.98
2017-04-15T08:02:34.254Z,72.56
2017-04-15T08:03:14.885Z,72.65
2017-04-15T08:03:55.666Z,72.56
2017-04-15T08:04:36.343Z,72.56
2017-04-15T08:05:17.611Z,72.52
2017-04-15T08:06:01.613Z,73.1
2017-04-15T08:06:46.188Z,73.85
2017-04-15T08:07:28.108Z,73.95
2017-04-15T08:08:08.719Z,74.43
2017-04-15T08:08:49.346Z,74.33
2017-04-15T08:09:34.355Z,74.8
2017-04-15T08:10:19.133Z,75.19
2017-04-15T08:10:59.798Z,75.09
2017-04-15T08:11:40.449Z,75.28
2017-04-15T08:12:22.847Z,74.71
2017-04-15T08:13:05.321Z,75.09
2017-04-15T08:13:50.264Z,75.09
2017-04-15T08:14:30.866Z,76.33
2017-04-15T08:15:12.365Z,75.95
2017-04-15T08:15:54.722Z,75.85
2017-04-15T08:16:39.004Z,76.71
2017-04-15T08:17:23.965Z,77.19
2017-04-15T08:18:07.473Z,77.76
2017-04-15T08:18:52.793Z,77.56
2017-04-15T08:19:39.586Z,77.76
2017-04-15T08:20:23.381Z,77.37
2017-04-15T08:21:04.745Z,77.47
2017-04-15T08:21:46.171Z,78.33
2017-04-15T08:22:27.681Z,78.52
2017-04-15T08:23:09.782Z,78.71
2017-04-15T08:23:52.665Z,78.42
2017-04-15T08:24:35.081Z,78.99
2017-04-15T08:25:18.199Z,79.09
2017-04-15T08:26:00.618Z,78.71
2017-04-15T08:26:43.749Z,78.42
2017-04-15T08:27:26.182Z,78.9
2017-04-15T08:28:09.063Z,79.09
2017-04-15T08:28:49.718Z,79.38
2017-04-15T08:29:30.507Z,79.09
2017-04-15T08:30:11.325Z,79.38
2017-04-15T08:30:53.665Z,79.57
2017-04-15T08:31:35.134Z,80.52
2017-04-15T08:32:15.792Z,80.99
2017-04-15T08:33:00.746Z,80.33
2017-04-15T08:33:42.207Z,80.52
2017-04-15T08:34:22.966Z,80.71
2017-04-15T08:35:04.157Z,81.18
2017-04-15T08:35:44.993Z,81.09
2017-04-15T08:36:25.867Z,80.95
2017-04-15T08:37:06.368Z,80.95
2017-04-15T08:37:48.711Z,81.09
2017-04-15T08:38:30.743Z,81.14
2017-04-15T08:39:15.031Z,81.18
2017-04-15T08:40:01.285Z,81.14
2017-04-15T08:40:45.615Z,81.66
2017-04-15T08:41:29.393Z,81.76
2017-04-15T08:42:09.997Z,82.32
2017-04-15T08:42:50.634Z,82
2017-04-15T08:43:31.293Z,81.95
2017-04-15T08:44:13.441Z,82
2017-04-15T08:44:57.338Z,82.09
2017-04-15T08:45:38.684Z,81.81
2017-04-15T08:46:19.443Z,82.19
2017-04-15T08:47:00.076Z,82.67
2017-04-15T08:47:41.718Z,82.38
2017-04-15T08:48:25.825Z,82.67
2017-04-15T08:49:06.424Z,82.76
2017-04-15T08:49:47.041Z,82.86